sensor_id;sensor_type;location;lat;lon;timestamp;pressure;altitude;pressure_sealevel;temperature;humidity
55858;BME280;41779;52.360;31.026;2022-10-18T00:03:56;1038.1;;;15;55.5
55858;BME280;41779;52.360;31.026;2022-10-18T00:08:42;1038.1;;;15.1;55.6
55858;BME280;41779;52.360;31.026;2022-10-18T00:13:59;1038;;;15.1;55.5
55858;BME280;41779;52.360;31.026;2022-10-18T00:18:58;1037.9;;;15.2;55.4
55858;BME280;41779;52.360;31.026;2022-10-18T00:24:06;1037.7;;;15.2;55.3
55858;BME280;41779;52.360;31.026;2022-10-18T00:29:13;1037.6;;;15.2;55.4
55858;BME280;41779;52.360;31.026;2022-10-18T00:34:14;1037.6;;;15.2;55.7
55858;BME280;41779;52.360;31.026;2022-10-18T00:39:19;1037.5;;;15.1;56
55858;BME280;41779;52.360;31.026;2022-10-18T00:45:00;1037.4;;;15.2;56.3
55858;BME280;41779;52.360;31.026;2022-10-18T00:49:29;1037.3;;;15.2;56.2
55858;BME280;41779;52.360;31.026;2022-10-18T00:54:16;1037.3;;;15.2;56.2
55858;BME280;41779;52.360;31.026;2022-10-18T00:59:11;1037.2;;;15.3;56.3
55858;BME280;41779;52.360;31.026;2022-10-18T01:04:01;1037.1;;;15.3;56.5
55858;BME280;41779;52.360;31.026;2022-10-18T01:09:27;1036.9;;;15.3;56.6
55858;BME280;41779;52.360;31.026;2022-10-18T01:14:33;1036.8;;;15.3;56.7
55858;BME280;41779;52.360;31.026;2022-10-18T01:19:32;1036.7;;;15.2;56.7
55858;BME280;41779;52.360;31.026;2022-10-18T01:24:34;1036.7;;;15.2;56.8
55858;BME280;41779;52.360;31.026;2022-10-18T01:29:18;1036.6;;;15.2;57.1
55858;BME280;41779;52.360;31.026;2022-10-18T01:34:09;1036.6;;;15.2;57.7
55858;BME280;41779;52.360;31.026;2022-10-18T01:38:45;1036.5;;;15.1;57.9
55858;BME280;41779;52.360;31.026;2022-10-18T01:44:25;1036.5;;;15.1;58.1
55858;BME280;41779;52.360;31.026;2022-10-18T01:49:03;1036.4;;;15.1;58
55858;BME280;41779;52.360;31.026;2022-10-18T01:53:57;1036.3;;;15.1;58
55858;BME280;41779;52.360;31.026;2022-10-18T01:59:17;1036.3;;;15.1;58
55858;BME280;41779;52.360;31.026;2022-10-18T02:04:30;1036.2;;;15.1;58.6
55858;BME280;41779;52.360;31.026;2022-10-18T02:09:29;1036.2;;;15.1;58.6
55858;BME280;41779;52.360;31.026;2022-10-18T02:13:45;1036.2;;;15.2;58.6
55858;BME280;41779;52.360;31.026;2022-10-18T02:19:29;1036.1;;;15.2;58.4
55858;BME280;41779;52.360;31.026;2022-10-18T02:24:15;1036;;;15.2;58.3
55858;BME280;41779;52.360;31.026;2022-10-18T02:29:27;1036;;;15.2;58.4
55858;BME280;41779;52.360;31.026;2022-10-18T02:33:59;1035.9;;;15.2;58.6
55858;BME280;41779;52.360;31.026;2022-10-18T02:38:43;1035.8;;;15.2;58.7
55858;BME280;41779;52.360;31.026;2022-10-18T02:43:43;1035.8;;;15.2;58.9
55858;BME280;41779;52.360;31.026;2022-10-18T02:49:23;1035.7;;;15.1;58.9
55858;BME280;41779;52.360;31.026;2022-10-18T02:54:09;1035.7;;;15.1;58.9
55858;BME280;41779;52.360;31.026;2022-10-18T02:59:07;1035.7;;;15;59.1
55858;BME280;41779;52.360;31.026;2022-10-18T03:04:07;1035.6;;;15;59.5
55858;BME280;41779;52.360;31.026;2022-10-18T03:09:17;1035.5;;;15;59.7
55858;BME280;41779;52.360;31.026;2022-10-18T03:14:21;1035.5;;;15;59.9
55858;BME280;41779;52.360;31.026;2022-10-18T03:19:25;1035.5;;;15.1;59.8
55858;BME280;41779;52.360;31.026;2022-10-18T03:23:47;1035.5;;;15.1;59.7
55858;BME280;41779;52.360;31.026;2022-10-18T03:29:05;1035.5;;;15.1;59.7
55858;BME280;41779;52.360;31.026;2022-10-18T03:34:17;1035.3;;;15;60
55858;BME280;41779;52.360;31.026;2022-10-18T03:39:33;1035.1;;;15;60.2
55858;BME280;41779;52.360;31.026;2022-10-18T03:44:31;1035.1;;;15;60.4
55858;BME280;41779;52.360;31.026;2022-10-18T03:48:47;1035;;;15;60.4
55858;BME280;41779;52.360;31.026;2022-10-18T03:54:33;1035;;;15;60.3
55858;BME280;41779;52.360;31.026;2022-10-18T03:59:19;1035;;;14.9;60.4
55858;BME280;41779;52.360;31.026;2022-10-18T04:03:57;1035;;;14.9;60.6
55858;BME280;41779;52.360;31.026;2022-10-18T04:08:45;1034.9;;;14.9;60.7
55858;BME280;41779;52.360;31.026;2022-10-18T04:14:33;1034.9;;;14.9;60.8
55858;BME280;41779;52.360;31.026;2022-10-18T04:18:57;1034.8;;;14.9;60.7
55858;BME280;41779;52.360;31.026;2022-10-18T04:24:11;1034.8;;;14.8;60.7
55858;BME280;41779;52.360;31.026;2022-10-18T04:28:57;1034.8;;;14.8;60.7
55858;BME280;41779;52.360;31.026;2022-10-18T04:34:31;1034.8;;;14.7;61
55858;BME280;41779;52.360;31.026;2022-10-18T04:39:27;1034.7;;;14.7;61.1
55858;BME280;41779;52.360;31.026;2022-10-18T04:44:01;1034.6;;;14.8;61
55858;BME280;41779;52.360;31.026;2022-10-18T04:49:01;1034.6;;;14.8;60.9
55858;BME280;41779;52.360;31.026;2022-10-18T04:54:03;1034.5;;;14.8;60.7
55858;BME280;41779;52.360;31.026;2022-10-18T04:59:29;1034.5;;;14.7;60.8
55858;BME280;41779;52.360;31.026;2022-10-18T05:04:29;1034.4;;;14.8;60.7
55858;BME280;41779;52.360;31.026;2022-10-18T05:08:55;1034.4;;;14.8;60.7
55858;BME280;41779;52.360;31.026;2022-10-18T05:13:43;1034.4;;;14.8;60.7
55858;BME280;41779;52.360;31.026;2022-10-18T05:18:45;1034.4;;;14.8;60.6
55858;BME280;41779;52.360;31.026;2022-10-18T05:24:23;1034.4;;;14.8;60.5
55858;BME280;41779;52.360;31.026;2022-10-18T05:28:45;1034.4;;;14.9;60.3
55858;BME280;41779;52.360;31.026;2022-10-18T05:34:19;1034.3;;;14.9;60.1
55858;BME280;41779;52.360;31.026;2022-10-18T05:39:19;1034.3;;;14.9;60
55858;BME280;41779;52.360;31.026;2022-10-18T05:44:31;1034.2;;;14.9;59.8
55858;BME280;41779;52.360;31.026;2022-10-18T05:49:19;1034.2;;;14.9;59.7
55858;BME280;41779;52.360;31.026;2022-10-18T05:54:31;1034.2;;;15;59.7
55858;BME280;41779;52.360;31.026;2022-10-18T05:58:59;1034.2;;;15;59.6
55858;BME280;41779;52.360;31.026;2022-10-18T06:04:11;1034.2;;;15.1;59.5
55858;BME280;41779;52.360;31.026;2022-10-18T06:08:59;1034.1;;;15.1;59.4
55858;BME280;41779;52.360;31.026;2022-10-18T06:14:21;1034;;;15.2;59.1
55858;BME280;41779;52.360;31.026;2022-10-18T06:19:33;1034;;;15.4;58.7
55858;BME280;41779;52.360;31.026;2022-10-18T06:23:53;1034;;;16.5;56.9
55858;BME280;41779;52.360;31.026;2022-10-18T06:29:21;1033.8;;;18.8;53.5
55858;BME280;41779;52.360;31.026;2022-10-18T06:34:21;1033.7;;;21;49.5
55858;BME280;41779;52.360;31.026;2022-10-18T06:39:11;1033.6;;;22.6;46.1
55858;BME280;41779;52.360;31.026;2022-10-18T06:44:13;1033.5;;;23.8;41.4
55858;BME280;41779;52.360;31.026;2022-10-18T06:49:01;1033.4;;;25;37.3
55858;BME280;41779;52.360;31.026;2022-10-18T06:54:23;1033.3;;;26;35
55858;BME280;41779;52.360;31.026;2022-10-18T06:58:45;1033.2;;;26.9;33.1
55858;BME280;41779;52.360;31.026;2022-10-18T07:04:09;1033.1;;;27.3;32.1
55858;BME280;41779;52.360;31.026;2022-10-18T07:09:33;1033.1;;;26.5;32.5
55858;BME280;41779;52.360;31.026;2022-10-18T07:14:33;1033.1;;;24.5;35.1
55858;BME280;41779;52.360;31.026;2022-10-18T07:19:05;1033.2;;;22.6;37.8
55858;BME280;41779;52.360;31.026;2022-10-18T07:24:01;1033.1;;;21.2;40.2
55858;BME280;41779;52.360;31.026;2022-10-18T07:29:33;1033;;;20.2;42
55858;BME280;41779;52.360;31.026;2022-10-18T07:34:31;1033;;;19.6;44.4
55858;BME280;41779;52.360;31.026;2022-10-18T07:38:59;1032.9;;;19.1;46.5
55858;BME280;41779;52.360;31.026;2022-10-18T07:43:59;1032.9;;;18.8;47.6
55858;BME280;41779;52.360;31.026;2022-10-18T07:48:45;1032.9;;;18.8;47.7
55858;BME280;41779;52.360;31.026;2022-10-18T07:54:23;1032.8;;;18.8;47.7
55858;BME280;41779;52.360;31.026;2022-10-18T07:58:55;1032.7;;;19.3;47.4
55858;BME280;41779;52.360;31.026;2022-10-18T08:04:17;1032.6;;;20.2;46.4
55858;BME280;41779;52.360;31.026;2022-10-18T08:09:31;1032.4;;;22;42.8
55858;BME280;41779;52.360;31.026;2022-10-18T08:14:33;1032.3;;;24;39
55858;BME280;41779;52.360;31.026;2022-10-18T08:19:23;1032.2;;;25.6;35.7
55858;BME280;41779;52.360;31.026;2022-10-18T08:24:31;1032.2;;;27;33.4
55858;BME280;41779;52.360;31.026;2022-10-18T08:28:59;1032.1;;;28.2;31.5
55858;BME280;41779;52.360;31.026;2022-10-18T08:33:55;1032;;;29.2;30.6
55858;BME280;41779;52.360;31.026;2022-10-18T08:38:55;1032;;;29.9;29.9
55858;BME280;41779;52.360;31.026;2022-10-18T08:44:17;1032;;;31;29.2
55858;BME280;41779;52.360;31.026;2022-10-18T08:49:32;1031.9;;;32.1;28
55858;BME280;41779;52.360;31.026;2022-10-18T08:54:01;1031.9;;;32.5;27.2
55858;BME280;41779;52.360;31.026;2022-10-18T08:59:17;1031.9;;;32.7;26.5
55858;BME280;41779;52.360;31.026;2022-10-18T09:04:24;1031.8;;;32.1;25.6
55858;BME280;41779;52.360;31.026;2022-10-18T09:09:15;1031.7;;;31.4;26.2
55858;BME280;41779;52.360;31.026;2022-10-18T09:14:36;1031.7;;;30.3;27.4
55858;BME280;41779;52.360;31.026;2022-10-18T09:19:00;1031.7;;;29.5;28.5
55858;BME280;41779;52.360;31.026;2022-10-18T09:24:02;1031.6;;;28.8;29.5
55858;BME280;41779;52.360;31.026;2022-10-18T09:29:20;1031.5;;;28.1;30.6
55858;BME280;41779;52.360;31.026;2022-10-18T09:34:12;1031.5;;;27.4;31.5
55858;BME280;41779;52.360;31.026;2022-10-18T09:39:31;1031.5;;;27;32.2
55858;BME280;41779;52.360;31.026;2022-10-18T09:44:32;1031.5;;;27.3;32.3
55858;BME280;41779;52.360;31.026;2022-10-18T09:48:45;1031.4;;;27.9;32
55858;BME280;41779;52.360;31.026;2022-10-18T09:54:13;1031.3;;;27.8;32.1
55858;BME280;41779;52.360;31.026;2022-10-18T09:59:28;1031.2;;;27.5;32.3
55858;BME280;41779;52.360;31.026;2022-10-18T10:04:25;1031;;;27.3;32.1
55858;BME280;41779;52.360;31.026;2022-10-18T10:08:57;1030.9;;;27.8;31.4
55858;BME280;41779;52.360;31.026;2022-10-18T10:13:46;1030.9;;;28.3;30.7
55858;BME280;41779;52.360;31.026;2022-10-18T10:18:45;1030.9;;;29.1;29.3
55858;BME280;41779;52.360;31.026;2022-10-18T10:24:28;1030.7;;;29.5;28.9
55858;BME280;41779;52.360;31.026;2022-10-18T10:29:35;1030.6;;;30.1;28.3
55858;BME280;41779;52.360;31.026;2022-10-18T10:33:45;1030.6;;;29.9;28.4
55858;BME280;41779;52.360;31.026;2022-10-18T10:39:17;1030.5;;;29.6;28.8
55858;BME280;41779;52.360;31.026;2022-10-18T10:44:21;1030.4;;;30.1;28.4
55858;BME280;41779;52.360;31.026;2022-10-18T10:49:23;1030.4;;;30.8;27.6
55858;BME280;41779;52.360;31.026;2022-10-18T10:54:33;1030.3;;;31.2;27
55858;BME280;41779;52.360;31.026;2022-10-18T10:59:21;1030.3;;;30.8;27.2
55858;BME280;41779;52.360;31.026;2022-10-18T11:03:45;1030.3;;;29.9;28.2
55858;BME280;41779;52.360;31.026;2022-10-18T11:09:23;1030.3;;;28.8;29.5
55858;BME280;41779;52.360;31.026;2022-10-18T11:14:34;1030.3;;;27.6;31.2
55858;BME280;41779;52.360;31.026;2022-10-18T11:19:27;1030.3;;;26.7;32.8
55858;BME280;41779;52.360;31.026;2022-10-18T11:24:24;1030.1;;;26.2;33.7
55858;BME280;41779;52.360;31.026;2022-10-18T11:29:34;1030.1;;;25.8;34.1
55858;BME280;41779;52.360;31.026;2022-10-18T11:34:31;1030;;;25.5;34.7
55858;BME280;41779;52.360;31.026;2022-10-18T11:38:46;1029.9;;;25.2;35.1
55858;BME280;41779;52.360;31.026;2022-10-18T11:44:12;1029.8;;;25;35.6
55858;BME280;41779;52.360;31.026;2022-10-18T11:49:17;1029.7;;;24.8;36.2
55858;BME280;41779;52.360;31.026;2022-10-18T11:54:05;1029.6;;;24.7;37
55858;BME280;41779;52.360;31.026;2022-10-18T11:59:01;1029.5;;;24.7;37.2
55858;BME280;41779;52.360;31.026;2022-10-18T12:03:49;1029.6;;;24.5;37.5
55858;BME280;41779;52.360;31.026;2022-10-18T12:09:27;1029.5;;;24.4;37.6
55858;BME280;41779;52.360;31.026;2022-10-18T12:14:31;1029.5;;;24.2;38
55858;BME280;41779;52.360;31.026;2022-10-18T12:18:51;1029.4;;;24.1;38.2
55858;BME280;41779;52.360;31.026;2022-10-18T12:23:44;1029.3;;;24;38.4
55858;BME280;41779;52.360;31.026;2022-10-18T12:29:07;1029.3;;;24.1;38.5
55858;BME280;41779;52.360;31.026;2022-10-18T12:34:22;1029.3;;;24.1;38.5
55858;BME280;41779;52.360;31.026;2022-10-18T12:39:08;1029.2;;;24.2;38.5
55858;BME280;41779;52.360;31.026;2022-10-18T12:43:51;1029.1;;;24.2;38.6
55858;BME280;41779;52.360;31.026;2022-10-18T12:48:49;1029;;;24.1;38.7
55858;BME280;41779;52.360;31.026;2022-10-18T12:54:22;1029;;;24;39.1
55858;BME280;41779;52.360;31.026;2022-10-18T12:58:43;1028.9;;;23.9;39.3
55858;BME280;41779;52.360;31.026;2022-10-18T13:04:31;1028.8;;;23.9;39.5
55858;BME280;41779;52.360;31.026;2022-10-18T13:09:19;1028.8;;;23.8;39.7
55858;BME280;41779;52.360;31.026;2022-10-18T13:15:14;1028.8;;;23.7;39.9
55858;BME280;41779;52.360;31.026;2022-10-18T13:19:20;1028.6;;;23.7;39.9
55858;BME280;41779;52.360;31.026;2022-10-18T13:24:30;1028.6;;;23.7;39.9
55858;BME280;41779;52.360;31.026;2022-10-18T13:29:21;1028.6;;;23.6;40
55858;BME280;41779;52.360;31.026;2022-10-18T13:33:43;1028.6;;;23.6;40.2
55858;BME280;41779;52.360;31.026;2022-10-18T13:39:00;1028.6;;;23.6;40.3
55858;BME280;41779;52.360;31.026;2022-10-18T13:44:27;1028.5;;;23.5;40.4
55858;BME280;41779;52.360;31.026;2022-10-18T13:49:21;1028.5;;;23.5;40.8
55858;BME280;41779;52.360;31.026;2022-10-18T13:54:26;1028.4;;;23.4;41.1
55858;BME280;41779;52.360;31.026;2022-10-18T13:59:25;1028.4;;;23.3;41.4
55858;BME280;41779;52.360;31.026;2022-10-18T14:04:21;1028.3;;;23.2;41.6
55858;BME280;41779;52.360;31.026;2022-10-18T14:09:28;1028.3;;;23.2;41.8
55858;BME280;41779;52.360;31.026;2022-10-18T14:13:44;1028.3;;;23.2;42
55858;BME280;41779;52.360;31.026;2022-10-18T14:18:43;1028.3;;;23.1;42
55858;BME280;41779;52.360;31.026;2022-10-18T14:23:59;1028.3;;;23.1;42.1
55858;BME280;41779;52.360;31.026;2022-10-18T14:29:19;1028.3;;;23;42.3
55858;BME280;41779;52.360;31.026;2022-10-18T14:33:43;1028.3;;;22.9;42.4
55858;BME280;41779;52.360;31.026;2022-10-18T14:38:51;1028.3;;;22.9;42.6
55858;BME280;41779;52.360;31.026;2022-10-18T14:44:31;1028.2;;;22.8;42.8
55858;BME280;41779;52.360;31.026;2022-10-18T14:49:31;1028.2;;;22.7;43.3
55858;BME280;41779;52.360;31.026;2022-10-18T14:54:05;1028.2;;;22.6;43.6
55858;BME280;41779;52.360;31.026;2022-10-18T14:58:49;1028.2;;;22.5;43.9
55858;BME280;41779;52.360;31.026;2022-10-18T15:04:17;1028.2;;;22.4;44.2
55858;BME280;41779;52.360;31.026;2022-10-18T15:09:25;1028.1;;;22.3;44.4
55858;BME280;41779;52.360;31.026;2022-10-18T15:14:15;1028.1;;;22.2;44.4
55858;BME280;41779;52.360;31.026;2022-10-18T15:18:57;1028.1;;;22.1;44.5
55858;BME280;41779;52.360;31.026;2022-10-18T15:24:19;1028.1;;;22;44.6
55858;BME280;41779;52.360;31.026;2022-10-18T15:29:17;1028;;;21.9;44.8
55858;BME280;41779;52.360;31.026;2022-10-18T15:34:10;1028;;;21.8;44.8
55858;BME280;41779;52.360;31.026;2022-10-18T15:39:16;1028;;;21.7;45
55858;BME280;41779;52.360;31.026;2022-10-18T15:44:19;1028;;;21.7;45.4
55858;BME280;41779;52.360;31.026;2022-10-18T15:49:46;1028;;;21.6;45.5
55858;BME280;41779;52.360;31.026;2022-10-18T15:54:30;1028;;;21.5;45.6
55858;BME280;41779;52.360;31.026;2022-10-18T15:59:29;1027.9;;;21.5;45.7
55858;BME280;41779;52.360;31.026;2022-10-18T16:04:17;1027.9;;;21.4;45.7
55858;BME280;41779;52.360;31.026;2022-10-18T16:08:43;1027.8;;;21.3;45.7
55858;BME280;41779;52.360;31.026;2022-10-18T16:14:07;1027.7;;;21.2;45.9
55858;BME280;41779;52.360;31.026;2022-10-18T16:19:11;1027.7;;;21.1;46.1
55858;BME280;41779;52.360;31.026;2022-10-18T16:24:17;1027.7;;;21;46.5
55858;BME280;41779;52.360;31.026;2022-10-18T16:29:05;1027.7;;;20.9;46.6
55858;BME280;41779;52.360;31.026;2022-10-18T16:34:01;1027.6;;;20.9;46.6
55858;BME280;41779;52.360;31.026;2022-10-18T16:39:17;1027.6;;;20.9;46.5
55858;BME280;41779;52.360;31.026;2022-10-18T16:43:43;1027.5;;;20.9;46.5
55858;BME280;41779;52.360;31.026;2022-10-18T16:49:11;1027.4;;;20.9;46.7
55858;BME280;41779;52.360;31.026;2022-10-18T16:54:05;1027.4;;;20.8;47
55858;BME280;41779;52.360;31.026;2022-10-18T16:58:43;1027.4;;;20.8;47.1
55858;BME280;41779;52.360;31.026;2022-10-18T17:03:57;1027.4;;;20.8;47.2
55858;BME280;41779;52.360;31.026;2022-10-18T17:08:55;1027.4;;;20.7;47.3
55858;BME280;41779;52.360;31.026;2022-10-18T17:14:27;1027.5;;;20.7;47.4
55858;BME280;41779;52.360;31.026;2022-10-18T17:19:27;1027.5;;;20.6;47.6
55858;BME280;41779;52.360;31.026;2022-10-18T17:24:01;1027.4;;;20.5;47.8
55858;BME280;41779;52.360;31.026;2022-10-18T17:28:55;1027.3;;;20.4;47.8
55858;BME280;41779;52.360;31.026;2022-10-18T17:34:25;1027.2;;;20.4;48
55858;BME280;41779;52.360;31.026;2022-10-18T17:39:27;1027.2;;;20.4;48.2
55858;BME280;41779;52.360;31.026;2022-10-18T17:44:07;1027.1;;;20.4;48.4
55858;BME280;41779;52.360;31.026;2022-10-18T17:48:55;1027.1;;;20.4;48.4
55858;BME280;41779;52.360;31.026;2022-10-18T17:53:57;1027.1;;;20.4;48.3
55858;BME280;41779;52.360;31.026;2022-10-18T17:59:17;1027;;;20.4;48.3
55858;BME280;41779;52.360;31.026;2022-10-18T18:04:07;1026.9;;;20.4;48.3
55858;BME280;41779;52.360;31.026;2022-10-18T18:09:14;1026.8;;;20.3;48.6
55858;BME280;41779;52.360;31.026;2022-10-18T18:14:15;1026.8;;;20.3;48.7
55858;BME280;41779;52.360;31.026;2022-10-18T18:19:13;1026.8;;;20.3;48.8
55858;BME280;41779;52.360;31.026;2022-10-18T18:24:03;1026.7;;;20.2;48.8
55858;BME280;41779;52.360;31.026;2022-10-18T18:29:27;1026.6;;;20.2;48.8
55858;BME280;41779;52.360;31.026;2022-10-18T18:33:55;1026.6;;;20.2;48.9
55858;BME280;41779;52.360;31.026;2022-10-18T18:39:05;1026.5;;;20.1;49.2
55858;BME280;41779;52.360;31.026;2022-10-18T18:44:15;1026.4;;;20.1;49.4
55858;BME280;41779;52.360;31.026;2022-10-18T18:49:29;1026.4;;;20.1;49.5
55858;BME280;41779;52.360;31.026;2022-10-18T18:54:19;1026.3;;;20;49.5
55858;BME280;41779;52.360;31.026;2022-10-18T18:59:27;1026.3;;;20;49.5
55858;BME280;41779;52.360;31.026;2022-10-18T19:04:29;1026.2;;;20;49.5
55858;BME280;41779;52.360;31.026;2022-10-18T19:09:11;1026.1;;;20;49.6
55858;BME280;41779;52.360;31.026;2022-10-18T19:13:43;1026;;;20;49.8
55858;BME280;41779;52.360;31.026;2022-10-18T19:19:10;1025.9;;;19.9;49.8
55858;BME280;41779;52.360;31.026;2022-10-18T19:24:27;1025.8;;;19.9;49.9
55858;BME280;41779;52.360;31.026;2022-10-18T19:28:43;1025.7;;;19.9;49.8
55858;BME280;41779;52.360;31.026;2022-10-18T19:33:57;1025.6;;;19.8;49.9
55858;BME280;41779;52.360;31.026;2022-10-18T19:38:55;1025.6;;;19.8;50
55858;BME280;41779;52.360;31.026;2022-10-18T19:44:30;1025.5;;;19.7;50.4
55858;BME280;41779;52.360;31.026;2022-10-18T19:49:27;1025.5;;;19.7;50.6
55858;BME280;41779;52.360;31.026;2022-10-18T19:54:05;1025.3;;;19.6;50.7
55858;BME280;41779;52.360;31.026;2022-10-18T19:58:43;1025.2;;;19.6;50.7
55858;BME280;41779;52.360;31.026;2022-10-18T20:03:45;1025.2;;;19.6;50.7
55858;BME280;41779;52.360;31.026;2022-10-18T20:09:27;1025.1;;;19.5;50.8
55858;BME280;41779;52.360;31.026;2022-10-18T20:13:43;1025;;;19.5;50.9
55858;BME280;41779;52.360;31.026;2022-10-18T20:19:27;1024.9;;;19.4;51.2
55858;BME280;41779;52.360;31.026;2022-10-18T20:23:43;1024.8;;;19.4;51.4
55858;BME280;41779;52.360;31.026;2022-10-18T20:29:17;1024.8;;;19.4;51.5
55858;BME280;41779;52.360;31.026;2022-10-18T20:34:06;1024.7;;;19.3;51.5
55858;BME280;41779;52.360;31.026;2022-10-18T20:39:07;1024.6;;;19.2;51.6
55858;BME280;41779;52.360;31.026;2022-10-18T20:44:17;1024.5;;;19.1;51.8
55858;BME280;41779;52.360;31.026;2022-10-18T20:49:15;1024.4;;;19.1;52.1
55858;BME280;41779;52.360;31.026;2022-10-18T20:54:17;1024.4;;;19;52.4
55858;BME280;41779;52.360;31.026;2022-10-18T20:59:27;1024.2;;;19;52.6
55858;BME280;41779;52.360;31.026;2022-10-18T21:04:15;1024.1;;;18.9;52.6
55858;BME280;41779;52.360;31.026;2022-10-18T21:09:08;1024;;;18.8;52.8
55858;BME280;41779;52.360;31.026;2022-10-18T21:13:59;1023.9;;;18.7;53
55858;BME280;41779;52.360;31.026;2022-10-18T21:19:24;1023.9;;;18.7;53.3
55858;BME280;41779;52.360;31.026;2022-10-18T21:24:17;1023.8;;;18.6;53.7
55858;BME280;41779;52.360;31.026;2022-10-18T21:29:17;1023.7;;;18.7;53.8
55858;BME280;41779;52.360;31.026;2022-10-18T21:34:27;1023.5;;;18.7;53.7
55858;BME280;41779;52.360;31.026;2022-10-18T21:39:16;1023.4;;;18.7;53.6
55858;BME280;41779;52.360;31.026;2022-10-18T21:44:09;1023.4;;;18.6;53.6
55858;BME280;41779;52.360;31.026;2022-10-18T21:49:09;1023.2;;;18.6;53.8
55858;BME280;41779;52.360;31.026;2022-10-18T21:54:21;1023.1;;;18.6;53.9
55858;BME280;41779;52.360;31.026;2022-10-18T21:59:17;1023.1;;;18.5;54.1
55858;BME280;41779;52.360;31.026;2022-10-18T22:03:57;1023;;;18.4;54.1
55858;BME280;41779;52.360;31.026;2022-10-18T22:08:52;1022.9;;;18.4;54.1
55858;BME280;41779;52.360;31.026;2022-10-18T22:14:27;1022.8;;;18.3;54.1
55858;BME280;41779;52.360;31.026;2022-10-18T22:19:27;1022.7;;;18.2;54.4
55858;BME280;41779;52.360;31.026;2022-10-18T22:24:17;1022.6;;;18.2;54.8
55858;BME280;41779;52.360;31.026;2022-10-18T22:29:04;1022.5;;;18.1;54.9
55858;BME280;41779;52.360;31.026;2022-10-18T22:34:00;1022.4;;;18.1;54.9
55858;BME280;41779;52.360;31.026;2022-10-18T22:39:27;1022.3;;;18;54.8
55858;BME280;41779;52.360;31.026;2022-10-18T22:44:10;1022.2;;;17.9;54.9
55858;BME280;41779;52.360;31.026;2022-10-18T22:49:07;1022.1;;;17.9;55.1
55858;BME280;41779;52.360;31.026;2022-10-18T22:53:57;1022;;;17.7;55.5
55858;BME280;41779;52.360;31.026;2022-10-18T22:59:19;1021.9;;;17.7;55.8
55858;BME280;41779;52.360;31.026;2022-10-18T23:04:21;1021.8;;;17.6;55.9
55858;BME280;41779;52.360;31.026;2022-10-18T23:08:43;1021.7;;;17.6;55.8
55858;BME280;41779;52.360;31.026;2022-10-18T23:13:45;1021.6;;;17.6;55.8
55858;BME280;41779;52.360;31.026;2022-10-18T23:19:19;1021.6;;;17.5;55.8
55858;BME280;41779;52.360;31.026;2022-10-18T23:24:19;1021.5;;;17.5;56.2
55858;BME280;41779;52.360;31.026;2022-10-18T23:29:23;1021.5;;;17.4;56.4
55858;BME280;41779;52.360;31.026;2022-10-18T23:34:25;1021.3;;;17.4;56.6
55858;BME280;41779;52.360;31.026;2022-10-18T23:38:41;1021.3;;;17.4;56.5
55858;BME280;41779;52.360;31.026;2022-10-18T23:44:19;1021.1;;;17.3;56.6
55858;BME280;41779;52.360;31.026;2022-10-18T23:49:21;1020.9;;;17.2;56.7
55858;BME280;41779;52.360;31.026;2022-10-18T23:54:09;1021;;;17.2;57
55858;BME280;41779;52.360;31.026;2022-10-18T23:58:43;1021.3;;;17.2;57.4
